RJSF

Details ICAO RJSF (FKS)
Name Fukushima
Region Japan
Timezone Asia/Tokyo (UTC+9.0)
Plans Departing 29
Arriving 47
Stats Elevation 1,220 ft / 372 m (AMSL)
Location 37.227429° 140.427974°
Runways 1
Magnetic Variation 7.897° W
Sunrise 2018-06-23 19:20:07 UTC / 2018-06-24 04:20:07 Local
Sunset 2018-06-24 10:03:32 UTC / 2018-06-24 19:03:32 Local
Advertisement - Login to hide

Runways

ID Width Length Bearing (true) Bearing (mag) Surface Threshold Offset Overrun Length
01 197 ft / 60 m 8,219 ft / 2,505 m 2.19° 10.09° Asphalt 0 ft / 0 m 197 ft / 60 m
19 197 ft / 60 m 8,219 ft / 2,505 m 182.19° 190.09° Asphalt 0 ft / 0 m 197 ft / 60 m

Approach Navaids

Runway Type Ident Frequency Range Bearing (true) Bearing (mag) Slope Elevation
01 Localiser IFK 110.50 MHz 18 nm / 33 km 2.19° 10.09° - 1,220 ft / 372 m (AMSL)
01 Glidescope IFK 110.50 MHz 10 nm / 19 km 2.19° 10.09° 3.00° 1,220 ft / 372 m (AMSL)
01 DME IFK 110.50 MHz 18 nm / 33 km - - - 1,223 ft / 373 m (AMSL)

Map

Weather


0- 5 10 15 20 25 30 35+ Temperature / ° C

Clouds and Precipitation
Forecast for 2018-06-24 06:00 UTC. Updated 5 hours ago

Ground ~20,000 ft ~40,000 ft Winds

METAR

RJSF 240800Z 34012KT 9999 FEW045 BKN/// 26/14 Q1005

TAF

TAF RJSF 240507Z 2406/2512 36005KT 9999 FEW030 BECMG 2412/2414 14004KT BECMG 2421/2500 34013KT

Frequencies

Tower 118.05 MHz Fukushima TWR
Tower 126.20 MHz Fukushima TWR
Warning: Do not use this data for real-world aviation or navigation. No guarantee of current accuracy is given.